Amesbury, Massachusetts
Current Conditions -  °F | °C
As of 2:54 PM on Friday 24 Oct 2014 (Local Time) from KLWM Reporting Station
Overcast Overcast  
Wind Chill: 11°   Ceiling: 1800
Heat Index: 11°   Visibility: 10mi
Dew Point:   Wind: 10mph
Humidity: 77%   Direction: 300°WNW
Pressure: 29.7"   Gusts: 20mph
Location:  42.86°N, 70.93°W
Report Text: KLWM 241854Z 30009G17KT 10SM BKN018 OVC026 11/07 A2970 RMK AO2 SLP058 T01110072
Loading
Personal Weather Stations






























Interactive Weather Map
Tropical Storm Tracking
New forecast layout! Learn more

10-Day Weather Forecast

Advertisements
Track Severe Weather on mobile